Time;durP1;ratioP1;P1;durP2;ratioP2;P2;SDS_P1;SDS_P2;PMS_P1;PMS_P2;Temp;Humidity;BMP_temperature;BMP_pressure;BME280_temperature;BME280_humidity;BME280_pressure;Samples;Min_cycle;Max_cycle;Signal;HPM_P1;HPM_P2
2022/11/11 00:00:01;;;;;;;49.08;40.12;;;21.80;55.30;;;;;;4745250;59;21049;-39
2022/11/11 00:05:02;;;;;;;48.08;40.17;;;21.80;55.30;;;;;;4843249;55;21002;-41
2022/11/11 00:10:04;;;;;;;47.03;39.17;;;21.80;55.30;;;;;;4936312;55;21038;-36
2022/11/11 00:15:06;;;;;;;48.42;39.70;;;21.80;55.30;;;;;;4744938;59;20990;-36
2022/11/11 00:25:31;;;;;;;47.85;38.38;;;21.80;55.30;;;;;;4946438;55;21512;-43
2022/11/11 00:30:31;;;;;;;46.95;38.50;;;21.80;55.40;;;;;;4756811;55;21045;-40
2022/11/11 00:40:52;;;;;;;44.97;37.58;;;21.80;55.40;;;;;;4745472;55;21026;-40
2022/11/11 00:45:52;;;;;;;47.65;38.97;;;21.80;55.50;;;;;;4893771;55;21005;-32
2022/11/11 00:50:59;;;;;;;44.10;37.40;;;21.80;55.50;;;;;;4890500;55;21113;-38
2022/11/11 00:56:00;;;;;;;46.77;36.87;;;21.80;55.40;;;;;;4791241;55;21070;-37
2022/11/11 01:01:00;;;;;;;42.22;36.47;;;21.80;55.50;;;;;;5183654;55;21058;-44
2022/11/11 01:06:03;;;;;;;45.10;38.15;;;21.80;55.50;;;;;;4763265;55;20986;-34
2022/11/11 01:11:10;;;;;;;43.13;36.13;;;21.80;55.50;;;;;;4745129;59;21030;-41
2022/11/11 01:16:17;;;;;;;44.35;36.75;;;21.80;55.50;;;;;;5006322;55;20993;-40
2022/11/11 01:21:23;;;;;;;44.53;37.70;;;21.80;55.60;;;;;;4745875;55;20994;-39
2022/11/11 01:26:27;;;;;;;43.63;36.28;;;21.80;55.60;;;;;;5032486;55;21655;-45
2022/11/11 01:31:28;;;;;;;42.88;35.50;;;21.80;55.60;;;;;;4800193;55;21009;-38
2022/11/11 01:36:29;;;;;;;45.65;36.42;;;21.80;55.50;;;;;;4745391;59;21523;-34
2022/11/11 01:41:33;;;;;;;42.25;35.33;;;21.80;55.60;;;;;;4744400;59;20986;-37
2022/11/11 01:46:40;;;;;;;41.05;34.92;;;21.80;55.60;;;;;;4745237;59;21528;-43
2022/11/11 01:53:05;;;;;;;44.05;35.75;;;21.80;55.60;;;;;;5104182;55;21073;-34
2022/11/11 01:58:11;;;;;;;41.22;34.88;;;21.80;55.50;;;;;;4819857;55;20994;-46
2022/11/11 02:03:13;;;;;;;40.78;35.10;;;21.80;55.60;;;;;;4745330;59;20994;-40
2022/11/11 02:08:32;;;;;;;42.30;35.20;;;21.70;55.60;;;;;;4771850;55;20982;-46
2022/11/11 02:18:57;;;;;;;40.47;33.90;;;21.70;55.60;;;;;;4745070;55;21078;-43
2022/11/11 02:24:31;;;;;;;40.45;33.90;;;21.90;55.70;;;;;;4745246;59;21517;-43
2022/11/11 02:29:33;;;;;;;40.17;33.95;;;21.70;55.60;;;;;;4842640;55;21002;-36
2022/11/11 02:34:34;;;;;;;40.67;33.85;;;21.80;55.70;;;;;;5230794;55;20970;-40
2022/11/11 02:39:42;;;;;;;37.35;31.65;;;21.80;55.60;;;;;;4869664;55;21380;-45
2022/11/11 02:44:43;;;;;;;41.95;34.58;;;21.70;55.60;;;;;;4926664;55;21030;-41
2022/11/11 02:49:44;;;;;;;36.80;32.50;;;21.70;55.60;;;;;;4745579;59;21099;-38
2022/11/11 02:54:45;;;;;;;38.63;31.70;;;21.70;55.60;;;;;;4807611;55;21002;-30
2022/11/11 02:59:46;;;;;;;38.45;32.50;;;21.70;55.60;;;;;;5138680;55;21508;-44
2022/11/11 03:04:47;;;;;;;37.25;32.17;;;21.70;55.70;;;;;;5001819;55;21062;-42
2022/11/11 03:09:48;;;;;;;37.45;31.83;;;21.70;55.70;;;;;;4998480;55;20997;-43
2022/11/11 03:14:48;;;;;;;37.05;31.87;;;21.70;55.60;;;;;;4744525;55;20998;-45
2022/11/11 03:19:49;;;;;;;36.10;30.70;;;21.70;55.60;;;;;;4798529;55;21117;-32
2022/11/11 03:30:10;;;;;;;37.17;31.20;;;21.70;55.60;;;;;;4745326;59;21077;-42
2022/11/11 03:35:11;;;;;;;37.25;30.90;;;21.70;55.60;;;;;;5172744;55;21033;-42
2022/11/11 03:40:12;;;;;;;37.38;30.67;;;21.70;55.60;;;;;;4745654;59;21017;-39
2022/11/11 03:45:13;;;;;;;34.60;29.77;;;21.70;55.60;;;;;;4745702;59;20982;-47
2022/11/11 03:50:14;;;;;;;38.17;30.83;;;21.70;55.60;;;;;;4781111;55;20998;-39
2022/11/11 03:55:15;;;;;;;35.90;30.88;;;21.70;55.60;;;;;;4917921;55;20982;-48
2022/11/11 04:00:22;;;;;;;38.13;30.35;;;21.70;55.60;;;;;;4805170;55;20986;-40
2022/11/11 04:10:42;;;;;;;35.85;29.45;;;21.70;55.60;;;;;;4745034;55;21089;-46
2022/11/11 04:26:21;;;;;;;33.88;28.15;;;21.70;55.60;;;;;;4745124;55;21026;-47
2022/11/11 04:31:23;;;;;;;33.72;28.02;;;21.70;55.70;;;;;;4952884;55;21519;-46
2022/11/11 04:36:24;;;;;;;33.90;27.95;;;21.70;55.60;;;;;;4807112;55;21496;-48
2022/11/11 04:41:24;;;;;;;32.45;27.50;;;21.70;55.60;;;;;;4745285;59;21061;-45
2022/11/11 04:46:25;;;;;;;32.85;26.35;;;21.70;55.60;;;;;;4797180;55;21067;-44
2022/11/11 04:52:25;;;;;;;31.75;26.52;;;21.70;55.60;;;;;;4803236;55;21571;-46
2022/11/11 04:57:25;;;;;;;31.58;26.37;;;21.70;55.60;;;;;;4799408;55;21467;-41
2022/11/11 05:29:03;;;;;;;29.73;25.40;;;21.70;55.60;;;;;;4745274;55;21610;-39
2022/11/11 05:34:03;;;;;;;29.00;23.83;;;21.70;55.70;;;;;;4804374;55;21071;-48
2022/11/11 05:39:04;;;;;;;29.35;24.80;;;21.70;55.70;;;;;;4774727;55;21039;-43
2022/11/11 05:44:05;;;;;;;29.33;23.75;;;21.70;55.70;;;;;;4976278;55;21053;-40
2022/11/11 05:49:15;;;;;;;29.45;24.25;;;21.70;56.00;;;;;;4811173;55;20998;-40
2022/11/11 05:54:16;;;;;;;27.60;23.60;;;21.70;55.70;;;;;;5079004;55;21085;-35
2022/11/11 05:59:17;;;;;;;28.20;23.65;;;21.70;55.70;;;;;;5126399;55;20982;-46
2022/11/11 06:04:17;;;;;;;27.90;23.40;;;21.70;55.70;;;;;;4745197;59;21042;-36
2022/11/11 06:09:18;;;;;;;27.70;23.73;;;21.70;55.60;;;;;;5230580;55;20983;-36
2022/11/11 06:14:19;;;;;;;26.58;23.38;;;21.70;55.60;;;;;;4744660;59;21081;-41
2022/11/11 06:19:20;;;;;;;27.95;23.70;;;21.70;55.60;;;;;;4745063;57;21066;-43
2022/11/11 06:24:22;;;;;;;26.87;22.77;;;21.70;55.60;;;;;;4862927;55;21532;-42
2022/11/11 06:29:22;;;;;;;26.58;23.02;;;21.70;55.60;;;;;;4745470;59;21085;-46
2022/11/11 06:34:23;;;;;;;27.08;23.27;;;21.70;55.60;;;;;;4863113;55;21045;-40
2022/11/11 06:39:24;;;;;;;28.05;23.95;;;21.70;55.50;;;;;;4795628;55;21461;-42
2022/11/11 06:44:25;;;;;;;28.50;24.30;;;21.60;55.40;;;;;;5085514;55;21073;-42
2022/11/11 06:49:26;;;;;;;27.75;23.73;;;21.70;55.40;;;;;;4745396;56;21077;-49
2022/11/11 06:54:26;;;;;;;28.52;24.50;;;21.60;55.40;;;;;;4889850;55;21094;-46
2022/11/11 06:59:27;;;;;;;27.75;23.17;;;21.70;55.40;;;;;;4918006;55;21039;-44
2022/11/11 07:04:28;;;;;;;28.83;24.02;;;21.70;55.40;;;;;;4745467;59;21002;-46
2022/11/11 07:09:29;;;;;;;27.20;24.00;;;21.80;55.40;;;;;;4779922;55;21006;-45
2022/11/11 07:14:29;;;;;;;28.83;24.02;;;21.60;55.20;;;;;;4764365;55;21060;-41
2022/11/11 07:19:30;;;;;;;27.67;23.70;;;21.60;55.20;;;;;;5022987;55;21577;-43
2022/11/11 07:24:31;;;;;;;30.40;25.70;;;21.60;55.20;;;;;;5053022;55;21069;-40
2022/11/11 07:29:32;;;;;;;30.20;25.33;;;21.60;55.20;;;;;;4793659;55;21006;-43
2022/11/11 07:34:33;;;;;;;30.30;24.87;;;21.70;55.30;;;;;;4744609;55;21617;-40
2022/11/11 07:39:33;;;;;;;29.67;24.92;;;21.60;55.10;;;;;;5017319;55;21090;-47
2022/11/11 07:44:34;;;;;;;30.90;25.62;;;21.60;55.10;;;;;;4744599;59;21034;-43
2022/11/11 07:49:35;;;;;;;29.67;25.58;;;21.60;55.10;;;;;;4756845;55;20989;-47
2022/11/11 07:54:36;;;;;;;32.33;26.92;;;21.60;55.20;;;;;;4756248;55;21081;-38
2022/11/11 07:59:38;;;;;;;31.98;26.35;;;21.60;55.10;;;;;;4919849;55;21454;-36
2022/11/11 08:04:39;;;;;;;36.83;29.23;;;21.60;55.00;;;;;;4744425;55;21083;-45
2022/11/11 08:09:39;;;;;;;37.83;31.20;;;21.70;55.10;;;;;;4745246;55;21066;-35
2022/11/11 08:14:40;;;;;;;45.55;34.08;;;21.70;55.10;;;;;;4811057;55;21566;-38
2022/11/11 08:19:41;;;;;;;50.75;38.33;;;21.80;55.10;;;;;;4828811;55;21509;-39
2022/11/11 08:24:42;;;;;;;50.85;38.05;;;21.80;55.20;;;;;;4939402;55;21053;-39
2022/11/11 08:29:43;;;;;;;64.32;44.25;;;21.90;55.30;;;;;;4808366;55;21109;-43
2022/11/11 08:34:43;;;;;;;59.95;45.83;;;21.90;55.30;;;;;;4744269;55;21508;-39
2022/11/11 08:39:44;;;;;;;63.85;51.25;;;21.90;55.20;;;;;;4773418;55;21057;-49
2022/11/11 08:44:45;;;;;;;70.28;52.22;;;22.00;55.30;;;;;;4815460;55;21105;-48
2022/11/11 08:49:48;;;;;;;73.43;54.25;;;22.00;55.30;;;;;;4747378;55;21496;-42
2022/11/11 08:54:49;;;;;;;77.47;58.00;;;22.00;55.30;;;;;;4806222;55;21570;-47
2022/11/11 08:59:49;;;;;;;82.28;59.53;;;22.00;55.30;;;;;;4772963;55;21014;-36
2022/11/11 09:04:50;;;;;;;87.45;61.78;;;22.10;55.40;;;;;;4744941;59;21062;-42
2022/11/11 09:09:51;;;;;;;86.18;62.78;;;22.10;55.40;;;;;;4834372;55;21579;-48
2022/11/11 09:14:52;;;;;;;89.70;62.78;;;22.10;55.50;;;;;;4767234;55;21074;-27
2022/11/11 09:19:53;;;;;;;87.75;64.15;;;22.10;55.40;;;;;;4748661;55;21010;-37
2022/11/11 09:24:55;;;;;;;99.87;70.62;;;22.10;55.50;;;;;;5053401;55;21066;-38
2022/11/11 09:29:55;;;;;;;97.05;69.85;;;22.10;55.60;;;;;;4783207;55;21483;-40
2022/11/11 09:34:57;;;;;;;101.75;74.07;;;22.20;55.60;;;;;;4825185;55;21037;-49
2022/11/11 09:39:57;;;;;;;110.18;79.30;;;22.20;55.90;;;;;;4838405;55;21528;-42
2022/11/11 09:45:24;;;;;;;106.50;77.25;;;22.10;55.40;;;;;;4797453;55;21022;-46
2022/11/11 09:50:27;;;;;;;122.35;85.35;;;22.10;55.20;;;;;;4842664;55;21021;-39
2022/11/11 09:55:39;;;;;;;132.90;89.00;;;22.10;55.10;;;;;;4743009;59;20994;-41
2022/11/11 10:00:45;;;;;;;127.15;89.45;;;22.10;55.00;;;;;;4769467;55;21044;-44
2022/11/11 10:06:57;;;;;;;136.68;92.95;;;22.10;54.90;;;;;;4744490;59;21028;-46
2022/11/11 10:12:17;;;;;;;149.87;96.00;;;22.10;54.90;;;;;;4743971;55;21026;-44
2022/11/11 10:20:53;;;;;;;150.77;99.53;;;22.10;55.00;;;;;;4762446;55;21158;-44
2022/11/11 10:25:56;;;;;;;156.07;102.55;;;22.10;55.40;;;;;;4823681;55;21078;-46
2022/11/11 10:31:00;;;;;;;155.20;103.97;;;22.10;55.50;;;;;;4745444;59;21485;-44
2022/11/11 10:36:04;;;;;;;166.30;110.93;;;22.20;55.60;;;;;;4784083;55;21029;-43
2022/11/11 10:41:37;;;;;;;185.37;114.85;;;22.20;55.50;;;;;;4743950;55;21066;-44
2022/11/11 10:46:46;;;;;;;172.80;112.95;;;22.20;55.40;;;;;;4745508;59;21014;-46
2022/11/11 10:51:54;;;;;;;186.62;115.25;;;22.10;55.20;;;;;;4740934;59;21041;-39
2022/11/11 10:57:12;;;;;;;192.95;121.57;;;22.10;55.10;;;;;;4751471;55;21101;-48
2022/11/11 11:02:33;;;;;;;179.35;116.62;;;22.10;54.90;;;;;;4771499;55;21073;-41
2022/11/11 11:07:40;;;;;;;192.25;120.05;;;22.10;54.80;;;;;;4765144;55;20986;-45
2022/11/11 11:13:00;;;;;;;185.85;120.07;;;22.10;54.70;;;;;;4744642;59;21105;-45
2022/11/11 11:18:12;;;;;;;185.70;119.22;;;22.10;54.80;;;;;;4745445;59;21046;-38
2022/11/11 11:23:33;;;;;;;195.10;122.32;;;22.10;54.70;;;;;;4877579;55;20998;-47
2022/11/11 11:28:34;;;;;;;195.90;122.62;;;22.00;54.60;;;;;;4879910;55;21053;-42
2022/11/11 11:33:55;;;;;;;195.82;122.28;;;22.10;54.50;;;;;;4990057;55;21112;-45
2022/11/11 11:38:56;;;;;;;190.48;122.55;;;22.10;54.50;;;;;;4797814;55;20986;-50
2022/11/11 11:43:56;;;;;;;201.68;124.20;;;22.00;54.40;;;;;;4838303;55;21532;-39
2022/11/11 11:50:53;;;;;;;191.02;120.53;;;22.00;54.30;;;;;;4791848;55;21119;-45
2022/11/11 11:56:14;;;;;;;182.48;118.15;;;22.00;54.20;;;;;;4886356;55;21018;-45
2022/11/11 12:03:17;;;;;;;193.35;123.93;;;22.00;54.30;;;;;;4966793;55;21045;-42
2022/11/11 12:09:55;;;;;;;187.35;122.85;;;22.00;54.20;;;;;;4745199;59;21529;-37
2022/11/11 12:21:58;;;;;;;182.93;122.32;;;22.00;54.00;;;;;;4744282;59;21029;-43
2022/11/11 12:30:10;;;;;;;193.43;123.13;;;22.00;54.10;;;;;;4924438;55;21508;-39
2022/11/11 12:36:41;;;;;;;187.18;121.57;;;22.00;53.90;;;;;;4829749;55;21070;-43
2022/11/11 12:42:17;;;;;;;174.87;117.07;;;22.00;53.90;;;;;;4761873;55;21626;-52
2022/11/11 12:50:40;;;;;;;174.32;119.80;;;22.00;53.80;;;;;;4752632;55;21077;-44
2022/11/11 12:56:09;;;;;;;169.32;116.53;;;22.00;54.10;;;;;;4744183;59;21073;-47
2022/11/11 13:01:37;;;;;;;172.35;117.93;;;22.00;54.40;;;;;;4794567;55;20998;-42
2022/11/11 13:07:00;;;;;;;169.80;112.85;;;22.00;54.50;;;;;;4743838;59;21491;-47
2022/11/11 13:15:30;;;;;;;161.15;113.07;;;22.00;54.70;;;;;;4793443;55;21078;-47
2022/11/11 13:20:57;;;;;;;159.12;110.85;;;22.10;54.70;;;;;;4744617;56;21472;-42
2022/11/11 13:26:06;;;;;;;159.23;107.80;;;22.10;54.80;;;;;;4815276;55;21030;-42
2022/11/11 13:31:30;;;;;;;153.02;106.82;;;22.10;54.90;;;;;;4801073;55;21062;-47
2022/11/11 13:36:46;;;;;;;147.98;104.20;;;22.10;54.90;;;;;;4762667;55;21002;-41
2022/11/11 13:41:52;;;;;;;156.93;106.12;;;22.10;55.00;;;;;;4864857;55;20994;-46
2022/11/11 13:47:00;;;;;;;147.37;100.27;;;22.10;55.10;;;;;;4745395;59;21551;-46
2022/11/11 13:52:04;;;;;;;149.02;102.85;;;22.10;55.10;;;;;;4972051;55;21114;-47
2022/11/11 13:57:19;;;;;;;142.48;101.45;;;22.10;55.10;;;;;;4744858;59;20990;-48
2022/11/11 14:02:31;;;;;;;129.87;95.70;;;22.10;55.20;;;;;;4811103;55;21468;-49
2022/11/11 14:07:50;;;;;;;141.98;98.50;;;22.20;55.20;;;;;;4803024;55;21041;-48
2022/11/11 14:12:56;;;;;;;136.50;93.70;;;22.10;53.50;;;;;;4935924;55;21515;-45
2022/11/11 14:17:57;;;;;;;129.45;93.47;;;22.10;54.30;;;;;;4897112;55;21081;-47
2022/11/11 14:24:17;;;;;;;138.98;96.63;;;22.00;54.40;;;;;;4766245;55;21005;-44
2022/11/11 14:29:19;;;;;;;125.32;91.55;;;22.10;54.50;;;;;;4994221;55;21049;-49
2022/11/11 14:36:05;;;;;;;126.70;89.80;;;22.00;54.50;;;;;;4744467;59;21006;-41
2022/11/11 14:44:56;;;;;;;122.25;89.15;;;22.00;54.60;;;;;;4745366;55;21002;-40
2022/11/11 14:49:58;;;;;;;125.25;90.18;;;22.00;54.70;;;;;;4893917;55;20978;-42
2022/11/11 14:55:33;;;;;;;126.05;88.43;;;22.00;54.80;;;;;;4781362;55;21468;-41
2022/11/11 15:01:12;;;;;;;117.68;86.00;;;21.90;54.70;;;;;;4813181;55;21046;-40
2022/11/11 15:06:43;;;;;;;122.82;87.82;;;22.00;54.80;;;;;;4745318;59;21010;-43
2022/11/11 15:14:43;;;;;;;116.28;84.00;;;21.90;54.80;;;;;;4822414;55;21090;-48
2022/11/11 15:21:25;;;;;;;111.78;83.55;;;21.90;54.90;;;;;;4745686;59;21472;-51
2022/11/11 15:27:31;;;;;;;112.65;82.00;;;21.90;54.90;;;;;;4803679;55;21476;-46
2022/11/11 15:33:39;;;;;;;112.12;80.50;;;21.90;54.90;;;;;;4938858;55;21113;-49
2022/11/11 15:38:40;;;;;;;118.20;83.75;;;21.90;55.00;;;;;;4745319;59;21084;-47
2022/11/11 15:43:41;;;;;;;112.35;79.85;;;22.00;55.10;;;;;;4778375;55;20998;-51
2022/11/11 15:48:43;;;;;;;112.80;79.90;;;21.90;55.10;;;;;;4954569;55;21356;-38
2022/11/11 15:53:44;;;;;;;108.32;77.22;;;21.90;55.10;;;;;;4753667;55;21018;-44
2022/11/11 15:58:45;;;;;;;108.10;78.62;;;21.90;55.20;;;;;;4837443;55;21058;-48
2022/11/11 16:03:45;;;;;;;109.90;79.60;;;21.90;55.70;;;;;;4745157;59;21058;-40
2022/11/11 16:08:50;;;;;;;112.15;79.22;;;21.90;55.10;;;;;;4882814;55;20990;-44
2022/11/11 16:14:03;;;;;;;114.18;81.20;;;21.90;55.20;;;;;;4757841;55;21697;-45
2022/11/11 16:19:24;;;;;;;100.65;73.70;;;21.90;55.10;;;;;;4779394;55;21536;-46
2022/11/11 16:24:30;;;;;;;111.03;80.10;;;21.90;55.10;;;;;;4820008;55;21555;-41
2022/11/11 16:29:36;;;;;;;108.20;77.85;;;21.90;55.20;;;;;;4891873;55;21113;-40
2022/11/11 16:34:42;;;;;;;105.32;76.12;;;21.90;55.20;;;;;;4852883;55;21468;-43
2022/11/11 16:39:44;;;;;;;103.78;76.68;;;21.90;55.20;;;;;;4745090;59;21517;-49
2022/11/11 16:44:55;;;;;;;107.70;76.18;;;21.90;55.20;;;;;;4749103;55;21102;-49
2022/11/11 16:50:52;;;;;;;103.93;75.43;;;21.90;55.10;;;;;;4745255;59;20994;-44
2022/11/11 16:55:53;;;;;;;104.70;76.28;;;21.90;55.10;;;;;;4855149;55;21061;-42
2022/11/11 17:01:01;;;;;;;103.10;76.85;;;21.90;55.20;;;;;;4932874;55;20991;-48
2022/11/11 17:06:07;;;;;;;100.95;75.00;;;21.90;55.20;;;;;;4792421;55;20990;-44
2022/11/11 17:11:11;;;;;;;98.40;74.35;;;21.90;55.10;;;;;;4976233;55;21030;-47
2022/11/11 17:16:12;;;;;;;107.90;78.05;;;22.00;55.20;;;;;;5230566;55;21018;-42
2022/11/11 17:21:13;;;;;;;99.25;74.10;;;21.80;55.10;;;;;;4745040;59;21010;-45
2022/11/11 17:26:16;;;;;;;100.85;74.50;;;21.80;55.10;;;;;;4745118;59;21467;-43
2022/11/11 17:31:17;;;;;;;104.95;76.05;;;21.80;55.10;;;;;;4772039;55;20994;-37
2022/11/11 17:36:18;;;;;;;112.40;79.15;;;21.80;55.10;;;;;;4803733;55;21057;-43
2022/11/11 17:41:18;;;;;;;109.25;80.18;;;21.80;55.20;;;;;;4870586;55;21041;-48
2022/11/11 17:46:19;;;;;;;100.55;75.82;;;21.80;55.10;;;;;;4853994;55;21058;-45
2022/11/11 17:51:24;;;;;;;107.97;79.15;;;21.80;55.10;;;;;;4817995;55;21054;-47
2022/11/11 17:56:25;;;;;;;106.22;77.00;;;21.80;55.10;;;;;;4824036;55;21034;-38
2022/11/11 18:01:26;;;;;;;111.60;79.32;;;21.80;55.10;;;;;;4802223;55;21535;-48
2022/11/11 18:06:28;;;;;;;109.00;77.95;;;21.80;55.70;;;;;;4744721;59;21097;-43
2022/11/11 18:11:29;;;;;;;103.60;76.28;;;21.80;55.10;;;;;;4813300;55;21574;-47
2022/11/11 18:16:30;;;;;;;110.85;80.97;;;21.80;55.10;;;;;;4744934;59;21010;-48
2022/11/11 18:21:31;;;;;;;113.30;81.30;;;21.80;55.10;;;;;;4977960;55;21457;-40
2022/11/11 18:26:32;;;;;;;109.82;79.97;;;21.80;55.00;;;;;;4767194;55;21017;-44
2022/11/11 18:31:34;;;;;;;113.20;81.43;;;21.80;55.10;;;;;;4792114;55;21645;-48
2022/11/11 18:36:34;;;;;;;107.30;78.90;;;21.80;55.00;;;;;;4745284;59;21057;-43
2022/11/11 18:41:35;;;;;;;114.90;81.97;;;21.80;55.00;;;;;;4801667;55;21603;-45
2022/11/11 18:46:36;;;;;;;112.50;81.15;;;21.80;55.00;;;;;;4744870;59;21605;-43
2022/11/11 18:51:37;;;;;;;110.90;81.37;;;21.80;55.10;;;;;;4881866;55;21054;-48
2022/11/11 18:56:39;;;;;;;115.05;82.12;;;21.80;55.00;;;;;;4745067;59;21538;-47
2022/11/11 19:01:41;;;;;;;116.28;84.28;;;21.80;55.00;;;;;;4745158;59;21538;-39
2022/11/11 19:06:41;;;;;;;114.72;82.18;;;21.80;54.90;;;;;;4955843;55;20994;-46
2022/11/11 19:11:44;;;;;;;113.37;82.62;;;21.80;55.00;;;;;;4744790;55;21030;-43
2022/11/11 19:16:45;;;;;;;112.65;81.97;;;21.80;54.90;;;;;;4774372;55;21010;-44
2022/11/11 19:21:46;;;;;;;113.88;82.60;;;21.80;54.90;;;;;;4745232;59;21587;-43
2022/11/11 19:26:49;;;;;;;113.75;83.50;;;21.80;55.50;;;;;;4745216;59;20990;-46
2022/11/11 19:31:50;;;;;;;114.22;83.32;;;21.80;54.90;;;;;;4745184;59;21647;-41
2022/11/11 19:36:54;;;;;;;117.20;84.10;;;21.80;54.90;;;;;;5200053;55;21077;-45
2022/11/11 19:41:55;;;;;;;114.10;84.93;;;21.80;54.90;;;;;;4837330;55;21544;-44
2022/11/11 19:46:55;;;;;;;115.75;84.78;;;21.80;54.90;;;;;;4927528;55;21835;-44
2022/11/11 19:51:57;;;;;;;114.90;83.37;;;21.80;54.80;;;;;;4746541;55;21017;-48
2022/11/11 19:56:57;;;;;;;113.90;83.87;;;21.80;54.80;;;;;;4745388;59;21002;-44
2022/11/11 20:01:58;;;;;;;117.20;83.28;;;21.80;54.80;;;;;;4815737;55;21050;-47
2022/11/11 20:06:59;;;;;;;115.53;82.50;;;21.80;54.80;;;;;;4783322;55;21026;-41
2022/11/11 20:12:00;;;;;;;114.50;82.20;;;21.80;54.80;;;;;;5088341;55;21587;-46
2022/11/11 20:17:01;;;;;;;113.15;83.07;;;21.80;55.10;;;;;;4795877;55;21062;-47
2022/11/11 20:22:04;;;;;;;118.28;83.25;;;21.80;54.70;;;;;;5036579;55;21488;-44
2022/11/11 20:27:06;;;;;;;117.35;84.30;;;21.80;54.70;;;;;;5013467;55;21536;-39
2022/11/11 20:32:06;;;;;;;116.28;83.05;;;21.80;54.60;;;;;;4745099;59;21480;-49
2022/11/11 20:37:07;;;;;;;116.62;84.10;;;21.80;54.70;;;;;;4981807;55;21061;-42
2022/11/11 20:42:08;;;;;;;113.53;81.15;;;21.70;54.50;;;;;;4934905;55;21173;-42
2022/11/11 20:47:09;;;;;;;114.95;83.97;;;21.70;54.40;;;;;;4932284;55;21565;-42
2022/11/11 20:52:11;;;;;;;116.25;82.37;;;21.70;54.40;;;;;;4753568;55;21026;-46
2022/11/11 20:57:13;;;;;;;111.57;81.75;;;21.70;54.50;;;;;;4836940;55;21538;-46
2022/11/11 21:02:14;;;;;;;116.85;84.65;;;21.70;54.50;;;;;;4745013;59;21552;-44
2022/11/11 21:07:16;;;;;;;113.65;81.07;;;21.70;54.40;;;;;;4820354;55;20993;-38
2022/11/11 21:12:18;;;;;;;112.53;79.95;;;21.70;54.30;;;;;;5108435;55;21579;-43
2022/11/11 21:17:19;;;;;;;112.70;83.10;;;21.70;55.00;;;;;;5082423;55;21536;-42
2022/11/11 21:22:20;;;;;;;115.65;81.22;;;21.70;54.40;;;;;;4745151;59;21006;-45
2022/11/11 21:27:20;;;;;;;112.57;80.70;;;21.70;54.30;;;;;;4745247;59;21022;-42
2022/11/11 21:32:21;;;;;;;116.32;82.78;;;21.70;54.30;;;;;;4897939;55;21085;-44
2022/11/11 21:37:22;;;;;;;113.00;80.50;;;21.70;54.30;;;;;;4895596;55;20986;-41
2022/11/11 21:42:25;;;;;;;113.40;79.93;;;21.70;54.20;;;;;;5230142;55;21507;-44
2022/11/11 21:47:26;;;;;;;114.68;79.97;;;21.70;54.30;;;;;;4812191;55;20994;-44
2022/11/11 21:52:26;;;;;;;117.47;82.43;;;21.70;54.20;;;;;;4745001;59;21026;-51
2022/11/11 21:57:27;;;;;;;113.82;82.68;;;21.70;54.20;;;;;;4913236;55;21554;-45
2022/11/11 22:02:28;;;;;;;109.28;78.60;;;21.70;54.20;;;;;;4744398;59;21070;-43
2022/11/11 22:07:29;;;;;;;113.07;81.22;;;21.70;54.20;;;;;;5230924;55;21010;-47
2022/11/11 22:12:29;;;;;;;101.50;74.57;;;21.70;54.20;;;;;;5230810;55;21035;-46
2022/11/11 22:17:30;;;;;;;113.78;81.15;;;21.70;54.10;;;;;;5179143;55;21066;-46
2022/11/11 22:22:32;;;;;;;108.45;79.05;;;21.70;54.70;;;;;;4891692;55;21097;-38
2022/11/11 22:27:33;;;;;;;105.50;76.20;;;21.70;54.10;;;;;;4794806;55;20998;-41
2022/11/11 22:32:34;;;;;;;112.57;79.28;;;21.70;54.10;;;;;;4816232;55;21093;-37
2022/11/11 22:37:35;;;;;;;108.43;78.05;;;21.70;54.10;;;;;;4800295;55;21499;-39
2022/11/11 22:42:36;;;;;;;103.87;74.05;;;21.70;54.80;;;;;;4812133;55;21153;-45
2022/11/11 22:47:37;;;;;;;106.50;76.37;;;21.70;54.10;;;;;;4745591;59;21021;-44
2022/11/11 22:52:38;;;;;;;105.68;74.22;;;21.70;54.00;;;;;;4783742;55;21017;-42
2022/11/11 22:57:38;;;;;;;104.63;72.87;;;21.70;53.90;;;;;;4934195;55;21093;-44
2022/11/11 23:02:39;;;;;;;109.40;75.50;;;21.70;54.10;;;;;;5230680;55;21508;-37
2022/11/11 23:07:40;;;;;;;105.32;74.68;;;21.60;53.90;;;;;;4993426;55;21005;-46
2022/11/11 23:12:41;;;;;;;100.32;72.25;;;21.70;54.00;;;;;;4744729;59;21106;-44
2022/11/11 23:17:41;;;;;;;105.78;72.47;;;21.70;54.00;;;;;;5166225;55;21061;-41
2022/11/11 23:22:42;;;;;;;103.05;72.80;;;21.70;53.80;;;;;;5124047;55;21086;-37
2022/11/11 23:27:43;;;;;;;105.37;73.75;;;21.60;53.90;;;;;;4845461;55;21001;-45
2022/11/11 23:32:44;;;;;;;101.30;70.35;;;21.60;53.90;;;;;;5179033;55;21081;-40
2022/11/11 23:37:45;;;;;;;103.75;73.00;;;21.60;53.90;;;;;;4745410;59;20990;-45
2022/11/11 23:42:45;;;;;;;104.25;72.93;;;21.60;53.80;;;;;;4974244;55;21074;-44
2022/11/11 23:47:46;;;;;;;103.57;72.65;;;21.60;53.90;;;;;;5170594;55;21532;-46
2022/11/11 23:52:47;;;;;;;98.65;67.75;;;21.60;53.80;;;;;;4864751;55;21566;-45
2022/11/11 23:57:48;;;;;;;104.05;72.18;;;21.60;54.00;;;;;;4754358;55;21046;-45
